Time;durP1;ratioP1;P1;durP2;ratioP2;P2;SDS_P1;SDS_P2;PMS_P1;PMS_P2;Temp;Humidity;BMP_temperature;BMP_pressure;BME280_temperature;BME280_humidity;BME280_pressure;Samples;Min_cycle;Max_cycle;Signal;HPM_P1;HPM_P2
2022/12/04 05:22:36;;;;;;;3.95;2.38;;;;;;;2.43;100.00;99973.41;5109534;27;20396;-67
2022/12/04 05:25:02;;;;;;;7.43;2.92;;;;;;;2.43;100.00;99969.97;5109713;28;20472;-68
2022/12/04 05:27:29;;;;;;;7.15;3.60;;;;;;;2.47;100.00;99970.50;5109626;28;20109;-68
2022/12/04 05:29:56;;;;;;;7.80;4.53;;;;;;;2.45;100.00;99966.22;5109834;28;20032;-68
2022/12/04 05:32:24;;;;;;;9.82;4.18;;;;;;;2.52;100.00;99970.97;5109354;28;20369;-69
2022/12/04 05:34:51;;;;;;;8.98;4.82;;;;;;;2.57;100.00;99967.00;5109497;28;20032;-69
2022/12/04 05:37:17;;;;;;;12.57;5.07;;;;;;;2.55;100.00;99968.09;5109414;28;20032;-69
2022/12/04 05:39:43;;;;;;;13.48;4.75;;;;;;;2.57;100.00;99971.44;5109463;28;20063;-69
2022/12/04 05:42:08;;;;;;;12.25;5.05;;;;;;;2.62;100.00;99977.97;5109058;28;20480;-68
2022/12/04 05:44:34;;;;;;;9.57;4.72;;;;;;;2.64;100.00;99977.84;5109239;28;20465;-69
2022/12/04 05:46:59;;;;;;;13.10;5.82;;;;;;;2.67;100.00;99972.31;5109322;28;20039;-69
2022/12/04 05:49:28;;;;;;;10.45;4.63;;;;;;;2.67;100.00;99967.91;5109486;28;20039;-69
2022/12/04 05:51:53;;;;;;;11.43;5.18;;;;;;;2.68;100.00;99974.84;5108774;28;20043;-69
2022/12/04 05:54:19;;;;;;;8.68;3.65;;;;;;;2.65;100.00;99976.88;5109114;28;20039;-69
2022/12/04 05:56:44;;;;;;;11.68;4.40;;;;;;;2.62;100.00;99966.63;5109066;28;20077;-69
2022/12/04 05:59:10;;;;;;;12.63;4.13;;;;;;;2.67;100.00;99970.53;5108899;28;20047;-69
2022/12/04 06:01:35;;;;;;;9.88;3.95;;;;;;;2.65;100.00;99968.97;5108773;28;20035;-68
2022/12/04 06:04:01;;;;;;;8.38;4.65;;;;;;;2.53;100.00;99951.59;5108966;28;20114;-68
2022/12/04 06:06:26;;;;;;;12.73;4.25;;;;;;;2.59;100.00;99970.31;5108834;28;20561;-68
2022/12/04 06:08:55;;;;;;;9.75;3.75;;;;;;;2.60;100.00;99960.63;5108974;28;20036;-69
2022/12/04 06:11:40;;;;;;;13.52;5.13;;;;;;;2.63;100.00;99965.66;5108464;28;20040;-68
2022/12/04 06:14:09;;;;;;;8.73;4.00;;;;;;;2.62;100.00;99959.56;5108761;28;20472;-69
2022/12/04 06:16:37;;;;;;;10.88;4.78;;;;;;;2.62;100.00;99964.81;5108850;28;20444;-69
2022/12/04 06:19:16;;;;;;;15.73;5.03;;;;;;;2.60;100.00;99961.47;5108648;28;20040;-68
2022/12/04 06:21:43;;;;;;;10.13;4.32;;;;;;;2.63;100.00;99971.75;5108349;28;20424;-68
2022/12/04 06:24:16;;;;;;;9.45;5.30;;;;;;;2.67;100.00;99961.78;5108517;28;20042;-68
2022/12/04 06:26:42;;;;;;;11.02;4.10;;;;;;;2.68;100.00;99963.47;5108454;28;20035;-69
2022/12/04 06:29:09;;;;;;;14.00;4.90;;;;;;;2.57;100.00;99955.66;5108426;28;20110;-68
2022/12/04 06:31:36;;;;;;;12.57;4.88;;;;;;;2.66;100.00;99965.38;5108051;28;20377;-68
2022/12/04 06:34:03;;;;;;;15.70;4.87;;;;;;;2.68;100.00;99968.75;5094608;28;20408;-69
2022/12/04 06:36:29;;;;;;;11.98;5.10;;;;;;;2.69;100.00;99981.75;5094740;28;20082;-69
2022/12/04 06:38:56;;;;;;;9.98;4.03;;;;;;;2.64;100.00;99977.84;5094985;28;20389;-69
2022/12/04 06:41:23;;;;;;;10.20;4.45;;;;;;;2.68;100.00;99984.53;5094544;28;20070;-68
2022/12/04 06:43:50;;;;;;;10.33;3.77;;;;;;;2.68;100.00;99974.84;5094548;28;20067;-69
2022/12/04 06:46:22;;;;;;;12.38;5.60;;;;;;;2.69;100.00;99973.03;5094589;28;20270;-69
2022/12/04 06:48:48;;;;;;;13.18;4.05;;;;;;;2.71;100.00;99979.81;5094646;28;20425;-69
2022/12/04 06:51:20;;;;;;;11.57;4.95;;;;;;;2.71;100.00;99968.47;5094090;28;20024;-68
2022/12/04 06:53:46;;;;;;;11.50;4.10;;;;;;;2.66;100.00;99970.63;5094481;28;20064;-69
2022/12/04 06:56:16;;;;;;;11.35;3.90;;;;;;;2.67;100.00;99981.06;5094296;28;20067;-69
2022/12/04 06:58:44;;;;;;;13.88;4.47;;;;;;;2.70;100.00;99972.91;5094413;28;20040;-69
2022/12/04 07:01:12;;;;;;;11.95;4.80;;;;;;;2.69;100.00;99976.50;5093950;28;20703;-68
2022/12/04 07:03:37;;;;;;;11.70;4.53;;;;;;;2.71;100.00;99974.56;5094266;28;20043;-68
2022/12/04 07:06:17;;;;;;;10.30;4.22;;;;;;;2.75;100.00;99980.41;5094432;28;20432;-69
2022/12/04 07:08:44;;;;;;;11.13;4.40;;;;;;;2.70;100.00;99977.31;5094182;28;20032;-69
2022/12/04 07:11:10;;;;;;;12.37;4.70;;;;;;;2.73;100.00;99982.31;5093708;28;20032;-68
2022/12/04 07:13:36;;;;;;;16.75;5.07;;;;;;;2.65;100.00;99979.50;5094085;28;20071;-68
2022/12/04 07:16:04;;;;;;;22.42;5.82;;;;;;;2.67;100.00;99981.06;5093969;28;20487;-68
2022/12/04 07:18:31;;;;;;;7.85;4.15;;;;;;;2.71;100.00;99976.34;5094003;28;20048;-68
2022/12/04 07:20:56;;;;;;;8.38;3.47;;;;;;;2.62;100.00;99970.09;5093521;28;20405;-68
2022/12/04 07:23:22;;;;;;;9.20;3.42;;;;;;;2.65;100.00;99964.56;5093889;28;20036;-69
2022/12/04 07:25:47;;;;;;;13.30;5.82;;;;;;;2.71;100.00;99968.47;5093786;28;20492;-68
2022/12/04 07:28:13;;;;;;;11.15;5.00;;;;;;;2.69;100.00;99971.22;5092617;28;20047;-69
2022/12/04 07:30:38;;;;;;;11.63;4.82;;;;;;;2.70;100.00;99977.31;5093321;28;20036;-68
2022/12/04 07:33:04;;;;;;;15.43;5.43;;;;;;;2.75;100.00;99982.19;5093760;28;20423;-69
2022/12/04 07:35:30;;;;;;;12.95;4.57;;;;;;;2.79;100.00;99976.53;5093616;28;20408;-68
2022/12/04 07:37:55;;;;;;;14.32;6.05;;;;;;;2.79;100.00;99973.06;5093840;28;20044;-69
2022/12/04 07:40:21;;;;;;;14.93;4.80;;;;;;;2.76;100.00;99973.34;5093162;28;20032;-69
2022/12/04 07:42:46;;;;;;;15.55;6.28;;;;;;;2.79;100.00;99979.16;5093331;28;20113;-68
2022/12/04 07:45:11;;;;;;;19.20;6.57;;;;;;;2.82;100.00;99984.19;5092336;28;20122;-69
2022/12/04 07:47:37;;;;;;;11.30;5.07;;;;;;;2.72;100.00;99983.28;5093386;28;20032;-68
2022/12/04 07:50:04;;;;;;;13.30;5.15;;;;;;;2.81;100.00;99979.06;5093428;28;20067;-68
2022/12/04 07:52:30;;;;;;;12.97;5.60;;;;;;;2.73;100.00;99979.69;5091987;28;20377;-68
2022/12/04 07:54:55;;;;;;;18.35;5.93;;;;;;;2.80;100.00;99986.09;5093093;28;20292;-61
2022/12/04 07:57:20;;;;;;;11.73;4.80;;;;;;;2.87;100.00;99975.88;5093054;28;20044;-58
2022/12/04 07:59:46;;;;;;;15.18;4.70;;;;;;;2.89;100.00;99985.31;5093019;28;20489;-54
2022/12/04 08:02:12;;;;;;;10.90;4.85;;;;;;;2.92;100.00;99985.06;5091337;28;20036;-57
2022/12/04 08:04:37;;;;;;;13.98;5.60;;;;;;;2.93;100.00;99983.25;5092985;28;20450;-66
2022/12/04 08:07:03;;;;;;;13.32;5.95;;;;;;;2.93;100.00;99994.63;5092978;28;20038;-66
2022/12/04 08:09:28;;;;;;;10.23;4.65;;;;;;;2.99;100.00;99988.81;5091774;28;20405;-67
2022/12/04 08:11:54;;;;;;;15.43;5.35;;;;;;;3.04;100.00;99977.09;5087319;28;20055;-66
2022/12/04 08:14:19;;;;;;;13.73;5.57;;;;;;;3.00;100.00;99976.53;5092591;28;20131;-68
2022/12/04 08:16:48;;;;;;;16.20;5.43;;;;;;;2.94;100.00;99979.69;5092498;28;20044;-68
2022/12/04 08:19:13;;;;;;;13.70;5.45;;;;;;;2.99;100.00;99983.56;5092725;28;20043;-67
2022/12/04 08:21:38;;;;;;;17.98;5.57;;;;;;;2.98;100.00;99979.28;5086542;28;20404;-67
2022/12/04 08:24:04;;;;;;;15.55;5.53;;;;;;;2.98;100.00;99981.91;5091613;28;20032;-67
2022/12/04 08:26:30;;;;;;;19.45;6.00;;;;;;;2.98;100.00;99981.91;5083866;28;20039;-67
2022/12/04 08:28:56;;;;;;;16.65;5.57;;;;;;;2.99;100.00;99983.56;5092428;28;20069;-67
2022/12/04 08:31:25;;;;;;;13.60;4.57;;;;;;;2.97;100.00;99980.25;5091341;28;20032;-68
2022/12/04 08:33:52;;;;;;;12.55;4.78;;;;;;;2.97;100.00;99974.97;5092201;28;20091;-68
2022/12/04 08:36:19;;;;;;;14.73;6.10;;;;;;;3.02;100.00;99973.75;5092146;28;20039;-68
2022/12/04 08:38:46;;;;;;;14.07;5.90;;;;;;;2.99;100.00;99977.47;5092424;28;20042;-67
2022/12/04 08:41:15;;;;;;;14.48;5.00;;;;;;;3.03;100.00;99976.25;5092771;28;20397;-67
2022/12/04 08:43:40;;;;;;;15.48;7.05;;;;;;;3.06;100.00;99975.16;5102070;28;20040;-67
2022/12/04 08:46:09;;;;;;;18.30;6.30;;;;;;;3.05;100.00;99974.31;5092011;28;20035;-67
2022/12/04 08:48:34;;;;;;;22.80;5.78;;;;;;;3.08;100.00;99973.22;5092207;28;20039;-68
2022/12/04 08:51:02;;;;;;;16.83;6.65;;;;;;;3.08;100.00;99978.50;5090069;28;20062;-67
2022/12/04 08:53:28;;;;;;;;;;;;;;;3.13;100.00;99986.81;5082816;28;20089;-68
2022/12/04 08:55:53;;;;;;;17.30;5.10;;;;;;;3.08;100.00;99991.66;5084181;28;19916;-67
2022/12/04 08:58:19;;;;;;;18.33;6.45;;;;;;;3.07;100.00;99984.72;5078806;28;20036;-67
2022/12/04 09:00:45;;;;;;;13.38;6.10;;;;;;;3.07;100.00;99979.47;5074922;28;20098;-68
2022/12/04 09:03:16;;;;;;;23.05;7.75;;;;;;;3.13;100.00;99987.66;5080376;28;20040;-68
2022/12/04 09:05:44;;;;;;;15.77;6.18;;;;;;;3.06;100.00;99988.31;5077280;28;20062;-67
2022/12/04 09:08:10;;;;;;;15.90;5.45;;;;;;;3.16;100.00;100002.34;5080777;28;20047;-68
2022/12/04 09:10:37;;;;;;;13.13;4.78;;;;;;;3.24;100.00;100013.06;5090779;28;20556;-68
2022/12/04 09:13:03;;;;;;;14.82;6.10;;;;;;;3.26;100.00;100016.41;5091706;28;20046;-68
2022/12/04 09:15:28;;;;;;;13.25;5.63;;;;;;;3.28;100.00;100013.63;5091721;28;20122;-68
2022/12/04 09:17:54;;;;;;;16.50;6.03;;;;;;;3.24;100.00;100024.41;5091657;28;20062;-69
2022/12/04 09:20:19;;;;;;;20.25;5.90;;;;;;;3.21;100.00;100011.53;5085967;28;20036;-68
2022/12/04 09:22:44;;;;;;;15.98;6.03;;;;;;;3.21;100.00;100010.69;5083328;28;20070;-68
2022/12/04 09:25:10;;;;;;;15.23;5.72;;;;;;;3.16;100.00;100007.63;5092029;28;20036;-68
2022/12/04 09:27:37;;;;;;;14.30;5.80;;;;;;;3.12;100.00;99993.88;5091867;28;20040;-67
2022/12/04 09:30:04;;;;;;;15.52;6.00;;;;;;;3.16;100.00;100007.63;5090781;28;20403;-67
2022/12/04 09:32:30;;;;;;;23.30;6.15;;;;;;;3.19;100.00;100002.06;5091397;28;20131;-68
2022/12/04 09:34:55;;;;;;;15.20;5.72;;;;;;;3.16;100.00;99999.72;5091771;28;20111;-68
2022/12/04 09:37:20;;;;;;;16.17;5.65;;;;;;;3.17;100.00;99999.59;5091630;28;20028;-69
2022/12/04 09:39:46;;;;;;;19.67;6.55;;;;;;;3.12;100.00;99993.88;5091622;28;20039;-68
2022/12/04 09:42:21;;;;;;;19.00;6.85;;;;;;;3.13;100.00;99995.56;5091372;28;20454;-67
2022/12/04 09:45:02;;;;;;;19.45;5.88;;;;;;;3.17;100.00;99985.59;5091668;28;20039;-68
2022/12/04 09:47:35;;;;;;;15.70;5.72;;;;;;;3.18;100.00;99990.72;5091898;28;20445;-68
2022/12/04 09:50:11;;;;;;;18.45;5.75;;;;;;;3.25;100.00;99991.03;5091766;28;20670;-68
2022/12/04 09:52:55;;;;;;;22.70;6.68;;;;;;;3.25;100.00;99983.13;5091412;28;20044;-68
2022/12/04 09:55:40;;;;;;;19.33;7.18;;;;;;;3.28;100.00;99982.88;5091508;28;20036;-66
2022/12/04 09:58:12;;;;;;;23.50;7.50;;;;;;;3.28;100.00;99982.03;5091755;28;20512;-67
2022/12/04 10:00:41;;;;;;;18.40;6.95;;;;;;;3.32;100.00;99968.47;5091453;28;20040;-67
2022/12/04 10:03:13;;;;;;;20.50;7.03;;;;;;;3.22;100.00;99962.34;5091415;28;20032;-66
2022/12/04 10:06:06;;;;;;;15.45;6.47;;;;;;;3.12;100.00;99967.56;5091577;28;20110;-67
2022/12/04 10:08:39;;;;;;;18.30;7.45;;;;;;;3.14;100.00;99965.66;5093626;28;20044;-67
2022/12/04 10:11:07;;;;;;;14.40;5.35;;;;;;;3.25;100.00;99960.25;5094757;28;20061;-67
2022/12/04 10:13:44;;;;;;;16.80;5.85;;;;;;;3.29;100.00;99963.47;5095094;28;20028;-67
2022/12/04 10:16:23;;;;;;;23.23;8.32;;;;;;;3.35;100.00;99962.94;5095047;28;20077;-67
2022/12/04 10:19:20;;;;;;;21.95;6.25;;;;;;;3.37;100.00;99950.47;5094012;28;20412;-67
2022/12/04 10:22:06;;;;;;;22.73;7.85;;;;;;;3.36;100.00;99953.25;5094601;28;20039;-67
2022/12/04 10:24:50;;;;;;;20.33;5.57;;;;;;;3.38;100.00;99938.13;5094965;28;20039;-67
2022/12/04 10:27:25;;;;;;;12.77;5.22;;;;;;;3.35;100.00;99936.63;5094875;28;20081;-67
2022/12/04 10:29:57;;;;;;;16.50;5.53;;;;;;;3.22;100.00;99930.75;5094823;28;20084;-66
2022/12/04 10:32:27;;;;;;;23.38;7.32;;;;;;;3.30;100.00;99935.34;5094566;28;20040;-67
2022/12/04 10:34:58;;;;;;;22.23;7.43;;;;;;;3.25;100.00;99920.78;5094800;28;20126;-67
2022/12/04 10:37:25;;;;;;;26.08;6.95;;;;;;;3.31;100.00;99929.09;5094713;28;20043;-68
2022/12/04 10:40:01;;;;;;;12.50;5.78;;;;;;;3.35;100.00;99936.63;5094636;28;20050;-68
2022/12/04 10:42:34;;;;;;;18.60;5.88;;;;;;;3.35;100.00;99931.34;5094372;28;20035;-67
2022/12/04 10:45:00;;;;;;;25.70;6.90;;;;;;;3.27;100.00;99939.09;5094419;28;20053;-68
2022/12/04 10:47:27;;;;;;;18.95;7.45;;;;;;;3.33;100.00;99929.81;5094209;28;20036;-68
2022/12/04 10:50:15;;;;;;;15.45;6.75;;;;;;;3.29;100.00;99921.34;5094515;28;20047;-69
2022/12/04 10:52:40;;;;;;;22.55;6.40;;;;;;;3.34;100.00;99924.41;5094222;28;20505;-69
2022/12/04 10:55:06;;;;;;;20.02;8.15;;;;;;;3.31;100.00;99922.03;5094313;28;20063;-69
2022/12/04 10:57:49;;;;;;;17.23;7.68;;;;;;;3.34;100.00;99924.41;5094349;28;20059;-68
2022/12/04 11:00:26;;;;;;;13.60;6.05;;;;;;;3.30;100.00;99932.72;5094094;28;20109;-68
2022/12/04 11:02:53;;;;;;;16.25;5.68;;;;;;;3.34;100.00;99928.84;5094244;28;20089;-68
2022/12/04 11:05:27;;;;;;;15.02;6.55;;;;;;;3.41;100.00;99929.97;5094049;28;20051;-67
2022/12/04 11:07:53;;;;;;;16.45;6.50;;;;;;;3.35;100.00;99922.63;5094132;28;20044;-68
2022/12/04 11:10:42;;;;;;;20.55;7.70;;;;;;;3.36;100.00;99930.38;5093769;28;20122;-68
2022/12/04 11:13:11;;;;;;;15.77;5.38;;;;;;;3.37;100.00;99931.19;5094123;28;20044;-68
2022/12/04 11:15:45;;;;;;;13.02;5.70;;;;;;;3.36;100.00;99942.72;5093950;28;20039;-68
2022/12/04 11:18:17;;;;;;;18.40;7.20;;;;;;;3.46;100.00;99933.88;5093900;28;20044;-67
2022/12/04 11:21:08;;;;;;;19.10;6.28;;;;;;;3.41;100.00;99930.81;5093750;28;20028;-67
2022/12/04 11:23:42;;;;;;;22.45;7.55;;;;;;;3.44;100.00;99935.78;5089899;28;20076;-68
2022/12/04 11:26:08;;;;;;;17.40;6.72;;;;;;;3.43;100.00;99939.41;5093731;28;20149;-68
2022/12/04 11:28:35;;;;;;;15.68;6.35;;;;;;;3.44;100.00;99941.06;5093810;28;20043;-67
2022/12/04 11:31:03;;;;;;;23.60;7.82;;;;;;;3.41;100.00;99951.03;5093833;28;20036;-67
2022/12/04 11:33:36;;;;;;;19.42;6.70;;;;;;;3.48;100.00;99963.53;5093561;28;20039;-67
2022/12/04 11:36:17;;;;;;;16.58;6.88;;;;;;;3.51;100.00;99957.16;5093560;28;20488;-67
2022/12/04 11:38:43;;;;;;;16.25;7.38;;;;;;;3.51;100.00;99954.53;5093480;28;20050;-68
2022/12/04 11:41:26;;;;;;;21.58;8.00;;;;;;;3.49;100.00;99964.38;5093330;28;20024;-67
2022/12/04 11:43:51;;;;;;;19.17;5.70;;;;;;;3.48;100.00;99957.44;5093561;28;20039;-67
2022/12/04 11:46:22;;;;;;;19.15;7.20;;;;;;;3.50;100.00;99950.22;5093315;28;20044;-66
2022/12/04 11:48:48;;;;;;;19.50;7.38;;;;;;;3.47;100.00;99953.13;5093346;28;20044;-68
2022/12/04 11:51:28;;;;;;;16.60;7.05;;;;;;;3.43;100.00;99957.81;5092966;28;20035;-67
2022/12/04 11:54:09;;;;;;;18.95;7.07;;;;;;;3.44;100.00;99956.03;5093440;28;20043;-67
2022/12/04 11:56:39;;;;;;;22.13;6.75;;;;;;;3.45;100.00;99953.25;5093881;28;20036;-67
2022/12/04 11:59:36;;;;;;;16.70;6.35;;;;;;;3.46;100.00;99947.03;5093402;28;20048;-68
2022/12/04 12:02:23;;;;;;;20.80;6.88;;;;;;;3.49;100.00;99951.19;5086700;28;20024;-67
2022/12/04 12:05:22;;;;;;;18.38;6.13;;;;;;;3.53;100.00;99956.06;5072777;28;20044;-67
2022/12/04 12:07:58;;;;;;;15.63;5.93;;;;;;;3.50;100.00;99947.59;5071886;28;20436;-67
2022/12/04 12:11:01;;;;;;;19.33;5.97;;;;;;;3.34;100.00;99934.94;5072774;28;20041;-68
2022/12/04 12:13:57;;;;;;;16.50;6.53;;;;;;;3.31;100.00;99940.47;5035256;28;20179;-68
2022/12/04 12:16:43;;;;;;;17.40;7.30;;;;;;;3.23;100.00;99932.41;5072457;28;20033;-67
2022/12/04 12:19:12;;;;;;;18.88;6.88;;;;;;;3.21;100.00;99932.56;5072716;28;20040;-68
2022/12/04 12:21:55;;;;;;;19.75;6.95;;;;;;;3.30;100.00;99923.00;5072171;28;20068;-68
2022/12/04 12:24:26;;;;;;;20.02;6.15;;;;;;;3.18;100.00;99906.47;5079087;28;20043;-67
2022/12/04 12:27:02;;;;;;;17.15;7.00;;;;;;;3.32;100.00;99917.59;5092668;28;20055;-69
2022/12/04 12:29:45;;;;;;;21.17;6.97;;;;;;;3.31;100.00;99919.41;5092858;28;20035;-68
2022/12/04 12:32:46;;;;;;;20.80;6.63;;;;;;;3.37;100.00;99916.22;5091622;28;20040;-68
2022/12/04 12:35:21;;;;;;;20.60;5.90;;;;;;;3.37;100.00;99913.59;5084030;28;20051;-69
2022/12/04 12:37:51;;;;;;;15.20;5.65;;;;;;;3.35;100.00;99910.28;5083674;28;20059;-67
2022/12/04 12:40:35;;;;;;;17.65;6.78;;;;;;;3.35;100.00;99912.91;5092048;28;20114;-67
2022/12/04 12:43:11;;;;;;;16.73;6.13;;;;;;;3.30;100.00;99915.13;5092583;28;20391;-68
2022/12/04 12:45:50;;;;;;;18.58;4.80;;;;;;;3.28;100.00;99917.06;5078175;28;20051;-67
2022/12/04 12:48:18;;;;;;;17.58;6.63;;;;;;;3.30;100.00;99915.13;5071991;28;20028;-67
2022/12/04 12:50:49;;;;;;;18.75;7.28;;;;;;;3.25;100.00;99909.41;5070213;28;20033;-69
2022/12/04 12:53:20;;;;;;;17.00;6.47;;;;;;;3.27;100.00;99907.50;5074992;28;20028;-67
2022/12/04 12:56:06;;;;;;;18.88;6.97;;;;;;;3.33;100.00;99900.88;5083257;28;20114;-68
2022/12/04 12:58:48;;;;;;;21.00;6.82;;;;;;;3.30;100.00;99895.84;5090917;28;20040;-67
2022/12/04 13:01:36;;;;;;;13.60;5.65;;;;;;;3.29;100.00;99896.81;5091817;28;20036;-67
2022/12/04 13:04:11;;;;;;;13.32;6.32;;;;;;;3.30;100.00;99895.84;5087645;28;20059;-67
2022/12/04 13:06:44;;;;;;;18.35;7.07;;;;;;;3.34;100.00;99887.56;5092005;28;20028;-68
2022/12/04 13:09:31;;;;;;;18.50;7.18;;;;;;;3.36;100.00;99885.63;5091871;28;20036;-65
2022/12/04 13:12:10;;;;;;;19.30;6.13;;;;;;;3.39;100.00;99893.25;5091558;28;20043;-67
2022/12/04 13:14:35;;;;;;;15.13;5.90;;;;;;;3.37;100.00;99891.72;5091885;28;20055;-68
2022/12/04 13:17:15;;;;;;;15.45;6.50;;;;;;;3.38;100.00;99885.47;5091882;28;20444;-68
2022/12/04 13:19:51;;;;;;;18.27;6.90;;;;;;;3.41;100.00;99885.22;5091851;28;20032;-67
2022/12/04 13:22:32;;;;;;;20.02;7.43;;;;;;;3.41;100.00;99882.59;5090418;28;20032;-68
2022/12/04 13:25:30;;;;;;;18.98;5.90;;;;;;;3.45;100.00;99879.50;5087766;28;20040;-68
2022/12/04 13:28:17;;;;;;;24.85;7.45;;;;;;;3.39;100.00;99873.97;5091771;28;20105;-67
2022/12/04 13:30:50;;;;;;;;;;;;;;;3.31;100.00;99865.91;5091960;28;20054;-68
2022/12/04 13:33:38;;;;;;;18.55;6.18;;;;;;;3.35;100.00;99870.78;5091739;28;19912;-68
2022/12/04 13:36:21;;;;;;;17.58;5.80;;;;;;;3.37;100.00;99868.84;5091659;28;20046;-68
2022/12/04 13:39:25;;;;;;;13.27;5.75;;;;;;;3.48;100.00;99873.16;5091762;28;20474;-68
2022/12/04 13:42:02;;;;;;;18.38;6.65;;;;;;;3.49;100.00;99870.38;5091291;28;20028;-68
2022/12/04 13:44:31;;;;;;;22.70;7.47;;;;;;;3.49;100.00;99873.03;5095673;28;20040;-67
2022/12/04 13:46:59;;;;;;;20.05;7.63;;;;;;;3.62;100.00;99869.28;5095467;28;20489;-67
2022/12/04 13:49:28;;;;;;;26.80;7.75;;;;;;;3.54;100.00;99883.16;5095374;28;20389;-67
2022/12/04 13:51:56;;;;;;;18.08;7.10;;;;;;;3.68;100.00;99874.00;5086517;28;20043;-68
2022/12/04 13:54:41;;;;;;;23.10;6.47;;;;;;;3.58;100.00;99881.88;5073960;28;20041;-67
2022/12/04 13:57:19;;;;;;;19.35;8.07;;;;;;;3.54;100.00;99878.72;5074825;28;20044;-66
2022/12/04 13:59:46;;;;;;;21.50;7.32;;;;;;;3.54;100.00;99883.16;5057370;28;20093;-68
2022/12/04 14:02:29;;;;;;;18.17;7.18;;;;;;;3.52;100.00;99885.06;5074810;28;20526;-68
2022/12/04 14:05:05;;;;;;;24.85;7.93;;;;;;;3.34;100.00;99892.81;5075294;28;20097;-66
2022/12/04 14:07:36;;;;;;;17.77;6.97;;;;;;;3.42;100.00;99897.41;5074733;28;20068;-68
2022/12/04 14:10:21;;;;;;;18.73;7.05;;;;;;;3.39;100.00;99892.41;5074708;28;20048;-67
2022/12/04 14:13:00;;;;;;;16.83;5.97;;;;;;;3.36;100.00;99900.59;5074732;28;20143;-67
2022/12/04 14:15:28;;;;;;;19.23;5.75;;;;;;;3.37;100.00;99900.44;5075019;28;20059;-67
2022/12/04 14:18:03;;;;;;;14.73;5.43;;;;;;;3.41;100.00;99904.47;5074793;28;20129;-68
2022/12/04 14:20:31;;;;;;;19.20;6.68;;;;;;;3.38;100.00;99901.25;5074357;28;20051;-67
2022/12/04 14:23:25;;;;;;;18.63;7.43;;;;;;;3.43;100.00;99899.91;5073565;28;20551;-67
2022/12/04 14:25:56;;;;;;;21.30;7.03;;;;;;;3.43;100.00;99891.16;5074568;28;20120;-67
2022/12/04 14:28:31;;;;;;;26.27;7.45;;;;;;;3.45;100.00;99891.84;5074544;28;20541;-66
2022/12/04 14:31:13;;;;;;;18.48;6.72;;;;;;;3.47;100.00;99887.31;5074258;28;20064;-67
2022/12/04 14:33:46;;;;;;;20.50;7.07;;;;;;;3.35;100.00;99893.66;5074428;28;20098;-67
2022/12/04 14:36:19;;;;;;;23.70;8.32;;;;;;;3.44;100.00;99893.66;5074488;28;20572;-67
2022/12/04 14:38:47;;;;;;;20.33;7.47;;;;;;;3.39;100.00;99893.25;5074399;28;20131;-67
2022/12/04 14:41:21;;;;;;;24.02;7.35;;;;;;;3.44;100.00;99898.09;5074097;28;20036;-67
2022/12/04 14:43:49;;;;;;;23.35;8.50;;;;;;;3.44;100.00;99891.03;5074168;28;20078;-67
2022/12/04 14:46:22;;;;;;;19.60;7.20;;;;;;;3.45;100.00;99899.75;5072961;28;20036;-66
2022/12/04 14:49:02;;;;;;;20.20;7.60;;;;;;;3.36;100.00;99888.25;5074268;28;20224;-67
2022/12/04 14:51:35;;;;;;;20.75;6.82;;;;;;;3.39;100.00;99893.25;5074121;28;20036;-67
2022/12/04 14:54:17;;;;;;;22.73;8.10;;;;;;;3.45;100.00;99897.94;5073511;28;20075;-67
2022/12/04 14:56:51;;;;;;;27.23;7.40;;;;;;;3.43;100.00;99899.91;5073866;28;20055;-66
2022/12/04 14:59:19;;;;;;;25.45;6.28;;;;;;;3.42;100.00;99887.69;5074077;28;20048;-67
2022/12/04 15:01:46;;;;;;;;;;;;;;;3.45;100.00;99890.06;5073950;28;20059;-67
2022/12/04 15:04:34;;;;;;;14.77;6.78;;;;;;;3.47;100.00;99897.84;5073957;28;20373;-67
2022/12/04 15:07:01;;;;;;;22.63;7.78;;;;;;;3.42;100.00;99892.97;5068137;28;20049;-67
2022/12/04 15:12:35;;;;;;;22.05;8.07;;;;;;;3.26;100.00;99887.41;5073414;28;20044;-66
2022/12/04 15:15:20;;;;;;;18.88;6.80;;;;;;;3.17;100.00;99877.66;5073676;28;20044;-66
2022/12/04 15:18:15;;;;;;;24.88;9.18;;;;;;;3.03;100.00;99875.41;5072589;28;20036;-67
2022/12/04 15:20:52;;;;;;;23.23;9.70;;;;;;;2.98;100.00;99874.00;5073278;28;20044;-66
2022/12/04 15:23:25;;;;;;;21.30;8.65;;;;;;;2.95;100.00;99871.66;5073827;28;20041;-67
2022/12/04 15:26:03;;;;;;;31.88;10.82;;;;;;;2.95;100.00;99861.13;5073510;28;20032;-66
2022/12/04 15:28:54;;;;;;;;;;;;;;;2.82;100.00;99867.59;5073975;28;20114;-66
2022/12/04 15:31:24;;;;;;;22.08;8.07;;;;;;;2.89;100.00;99855.56;5071895;28;20019;-66
2022/12/04 15:33:54;;;;;;;22.33;9.02;;;;;;;2.84;100.00;99840.19;5073452;28;20044;-67
2022/12/04 15:37:01;;;;;;;26.45;9.20;;;;;;;2.88;100.00;99844.22;5072307;28;20032;-67
2022/12/04 15:39:29;;;;;;;23.70;10.07;;;;;;;2.81;100.00;99848.34;5052632;28;20452;-65
2022/12/04 15:42:15;;;;;;;26.15;9.93;;;;;;;2.77;100.00;99873.25;5072900;28;20044;-66
2022/12/04 15:44:52;;;;;;;25.83;10.40;;;;;;;2.86;100.00;99885.59;5073034;28;20131;-66
2022/12/04 15:47:22;;;;;;;26.85;8.75;;;;;;;2.92;100.00;99900.03;5072986;28;20028;-66
2022/12/04 15:49:48;;;;;;;31.23;11.40;;;;;;;2.93;100.00;99910.44;5072948;28;20078;-66
2022/12/04 15:52:16;;;;;;;38.15;12.30;;;;;;;2.97;100.00;99922.34;5072683;28;20174;-66
2022/12/04 15:55:05;;;;;;;32.30;12.32;;;;;;;3.07;100.00;99925.03;5072873;28;20048;-66
2022/12/04 15:57:41;;;;;;;19.17;8.23;;;;;;;3.05;100.00;99929.56;5072869;28;20066;-67
2022/12/04 16:00:38;;;;;;;32.97;10.20;;;;;;;3.01;100.00;99927.38;5071327;28;20078;-67
2022/12/04 16:03:19;;;;;;;29.60;10.05;;;;;;;2.90;100.00;99929.09;5072697;28;20055;-66
2022/12/04 16:05:46;;;;;;;23.83;8.43;;;;;;;2.93;100.00;99926.22;5071814;28;20032;-67
2022/12/04 16:08:24;;;;;;;23.27;8.80;;;;;;;2.94;100.00;99922.63;5072679;28;20028;-67
2022/12/04 16:11:03;;;;;;;;;;;;;;;2.90;100.00;99926.47;5071346;28;20032;-66
2022/12/04 16:13:37;;;;;;;28.33;10.07;;;;;;;2.91;100.00;99922.88;5072460;28;20301;-67
2022/12/04 16:16:21;;;;;;;34.40;9.82;;;;;;;2.89;100.00;99919.56;5072347;28;20063;-67
2022/12/04 16:18:47;;;;;;;26.95;10.25;;;;;;;2.82;100.00;99918.41;5072521;28;20112;-68
2022/12/04 16:21:18;;;;;;;21.38;8.98;;;;;;;2.84;100.00;99910.38;5071965;28;20123;-66
2022/12/04 16:23:44;;;;;;;27.17;9.65;;;;;;;2.76;100.00;99903.16;5072476;28;20046;-67
2022/12/04 16:26:14;;;;;;;28.02;9.45;;;;;;;2.73;100.00;99895.50;5072055;28;20165;-67
2022/12/04 16:28:40;;;;;;;34.63;10.85;;;;;;;2.72;100.00;99896.47;5072192;28;20044;-66
2022/12/04 16:31:07;;;;;;;24.80;9.35;;;;;;;2.63;100.00;99895.47;5071770;28;20098;-66
2022/12/04 16:33:33;;;;;;;23.77;10.47;;;;;;;2.76;100.00;99903.16;5072331;28;20041;-67
2022/12/04 16:35:58;;;;;;;34.20;11.50;;;;;;;2.79;100.00;99887.09;5072066;28;20519;-66
2022/12/04 16:38:23;;;;;;;30.70;10.35;;;;;;;2.84;100.00;99887.53;5072101;28;20369;-66
2022/12/04 16:40:49;;;;;;;30.48;10.10;;;;;;;2.80;100.00;99888.75;5071767;28;20421;-67
2022/12/04 16:43:16;;;;;;;24.98;9.32;;;;;;;2.77;100.00;99896.09;5072062;28;20045;-67
2022/12/04 16:45:48;;;;;;;24.40;9.52;;;;;;;2.75;100.00;99885.72;5071983;28;20051;-67
2022/12/04 16:48:14;;;;;;;21.23;8.88;;;;;;;2.73;100.00;99882.34;5071968;28;20040;-67
2022/12/04 16:50:40;;;;;;;28.40;11.20;;;;;;;2.77;100.00;99888.19;5071603;28;20032;-66
2022/12/04 16:53:05;;;;;;;23.33;9.88;;;;;;;2.80;100.00;99886.13;5071903;28;20068;-66
2022/12/04 16:55:38;;;;;;;25.23;9.32;;;;;;;2.77;100.00;99875.88;5071728;28;20076;-65
2022/12/04 16:58:05;;;;;;;30.85;10.77;;;;;;;2.71;100.00;99873.78;5071657;28;20040;-66
2022/12/04 17:00:31;;;;;;;31.88;10.57;;;;;;;2.76;100.00;99876.84;5071440;28;20150;-66
2022/12/04 17:02:57;;;;;;;36.75;10.80;;;;;;;2.78;100.00;99884.59;5071748;28;20464;-66
2022/12/04 17:05:26;;;;;;;34.00;10.88;;;;;;;2.68;100.00;99879.31;5071582;28;20036;-65
2022/12/04 17:07:51;;;;;;;26.63;10.57;;;;;;;2.80;100.00;99883.50;5071682;28;20398;-66
2022/12/04 17:10:18;;;;;;;27.75;10.00;;;;;;;2.80;100.00;99880.88;5070081;28;20044;-66
2022/12/04 17:12:43;;;;;;;35.90;11.30;;;;;;;2.76;100.00;99884.75;5071645;28;20059;-65
2022/12/04 17:15:10;;;;;;;29.50;11.10;;;;;;;2.82;100.00;99892.09;5071701;28;20040;-65